Time;durP1;ratioP1;P1;durP2;ratioP2;P2;SDS_P1;SDS_P2;PMS_P1;PMS_P2;Temp;Humidity;BMP_temperature;BMP_pressure;BME280_temperature;BME280_humidity;BME280_pressure;Samples;Min_cycle;Max_cycle;Signal;HPM_P1;HPM_P2
2023/08/10 00:00:14;;;;;;;1.87;1.77;;;;;;;-143.84;71.94;45068.13;5092892;28;20472;-50
2023/08/10 00:02:41;;;;;;;1.77;1.67;;;;;;;-143.84;72.13;45081.44;5092721;28;20494;-52
2023/08/10 00:05:10;;;;;;;1.80;1.70;;;;;;;-143.84;72.58;45094.78;5092834;28;20440;-51
2023/08/10 00:07:38;;;;;;;2.10;1.83;;;;;;;-143.84;72.68;45062.41;5092816;28;20845;-51
2023/08/10 00:10:08;;;;;;;2.73;1.90;;;;;;;-143.84;72.62;45071.91;5092292;28;20432;-51
2023/08/10 00:12:35;;;;;;;1.73;1.63;;;;;;;-143.84;72.78;45068.13;5093005;28;20474;-51
2023/08/10 00:15:02;;;;;;;3.00;2.00;;;;;;;-143.84;72.73;45056.69;5093005;28;20423;-51
2023/08/10 00:17:30;;;;;;;2.77;1.80;;;;;;;-143.84;73.11;45049.06;5092426;28;20513;-50
2023/08/10 00:19:57;;;;;;;2.67;2.00;;;;;;;-143.84;73.18;45075.72;5092527;28;20432;-50
2023/08/10 00:22:26;;;;;;;4.23;1.70;;;;;;;-143.84;73.02;45070.00;5092645;28;20505;-51
2023/08/10 00:24:53;;;;;;;2.30;1.80;;;;;;;-143.84;73.01;45068.13;5092447;28;20447;-50
2023/08/10 00:27:20;;;;;;;2.03;1.83;;;;;;;-143.84;73.10;45090.97;5092627;28;20436;-51
2023/08/10 00:29:47;;;;;;;3.03;2.33;;;;;;;-143.84;72.82;45089.06;5091857;28;20472;-50
2023/08/10 00:32:19;;;;;;;1.80;1.70;;;;;;;-143.84;72.82;45073.81;5091719;28;20432;-50
2023/08/10 00:34:46;;;;;;;3.03;1.67;;;;;;;-143.84;73.34;45054.78;5091569;28;20444;-51
2023/08/10 00:37:13;;;;;;;2.57;2.20;;;;;;;-143.84;73.33;45066.22;5092066;28;20437;-50
2023/08/10 00:39:41;;;;;;;2.67;2.47;;;;;;;-143.84;73.33;45079.53;5092144;28;20440;-51
2023/08/10 00:42:10;;;;;;;3.53;2.23;;;;;;;-143.84;73.00;45058.59;5092063;28;20479;-50
2023/08/10 00:44:37;;;;;;;16.30;2.17;;;;;;;-143.84;73.29;45068.13;5092186;28;20476;-51
2023/08/10 00:47:05;;;;;;;1.93;1.83;;;;;;;-143.84;73.26;45079.53;5091994;28;20999;-51
2023/08/10 00:49:32;;;;;;;3.67;2.00;;;;;;;-143.84;73.04;45045.25;5091743;28;20432;-52
2023/08/10 00:52:00;;;;;;;5.00;2.20;;;;;;;-143.84;73.18;45073.81;5091745;28;20440;-51
2023/08/10 00:54:27;;;;;;;2.73;2.23;;;;;;;-143.84;73.05;45098.56;5091840;28;20993;-52
2023/08/10 00:56:56;;;;;;;4.07;2.03;;;;;;;-143.84;73.29;45071.91;5091578;28;20436;-52
2023/08/10 00:59:24;;;;;;;4.00;2.30;;;;;;;-143.84;73.41;45047.16;5091668;28;20444;-51
2023/08/10 01:01:52;;;;;;;1.70;1.60;;;;;;;-143.84;73.34;45071.91;5091426;28;21074;-51
2023/08/10 01:04:19;;;;;;;9.07;2.10;;;;;;;-143.84;73.85;45085.25;5091176;28;20491;-51
2023/08/10 01:06:53;;;;;;;2.17;2.07;;;;;;;-143.84;74.10;45087.16;5091643;28;20443;-51
2023/08/10 01:09:28;;;;;;;1.90;1.80;;;;;;;-143.84;74.23;45077.63;5091898;28;20440;-50
2023/08/10 01:12:02;;;;;;;2.10;1.90;;;;;;;-143.84;74.27;45079.53;5091589;28;20482;-51
2023/08/10 01:14:36;;;;;;;4.90;2.33;;;;;;;-143.84;74.72;45056.69;5091506;28;20443;-50
2023/08/10 01:17:07;;;;;;;6.43;2.60;;;;;;;-143.84;74.97;45054.78;5091444;28;20440;-51
2023/08/10 01:19:38;;;;;;;2.07;1.97;;;;;;;-143.84;75.28;45079.53;5091528;28;20466;-50
2023/08/10 01:22:16;;;;;;;2.53;2.00;;;;;;;-143.84;75.41;45087.16;5090886;28;20464;-51
2023/08/10 01:24:45;;;;;;;8.50;2.47;;;;;;;-143.84;75.52;45066.22;5090993;28;20436;-50
2023/08/10 01:27:15;;;;;;;3.70;1.93;;;;;;;-143.84;75.83;45094.78;5091168;28;20501;-52
2023/08/10 01:29:42;;;;;;;3.00;2.40;;;;;;;-143.84;76.12;45073.81;5090420;28;21052;-53
2023/08/10 01:32:14;;;;;;;2.83;2.47;;;;;;;-143.84;76.66;45089.06;5090345;28;20838;-53
2023/08/10 01:34:41;;;;;;;4.80;2.50;;;;;;;-143.84;76.75;45094.78;5090457;28;20528;-53
2023/08/10 01:37:09;;;;;;;13.10;3.00;;;;;;;-143.84;76.83;45098.56;5090495;28;20440;-53
2023/08/10 01:39:36;;;;;;;12.57;2.80;;;;;;;-143.84;77.54;45075.72;5090629;28;20463;-53
2023/08/10 01:42:03;;;;;;;17.17;2.40;;;;;;;-143.84;77.86;45079.53;5090388;28;20475;-53
2023/08/10 01:44:31;;;;;;;18.27;2.80;;;;;;;-143.84;78.44;45066.22;5090385;28;20444;-53
2023/08/10 01:47:02;;;;;;;7.50;2.10;;;;;;;-143.84;78.50;45096.66;5089903;28;20512;-54
2023/08/10 01:49:32;;;;;;;11.30;2.70;;;;;;;-143.84;78.74;45075.72;5090041;28;20444;-53
2023/08/10 01:52:02;;;;;;;9.13;2.67;;;;;;;-143.84;78.94;45062.41;5089917;28;20436;-53
2023/08/10 01:54:29;;;;;;;14.20;2.80;;;;;;;-143.84;78.94;45098.56;5089928;28;20439;-53
2023/08/10 01:56:56;;;;;;;2.10;2.00;;;;;;;-143.84;78.57;45083.34;5089999;28;20432;-53
2023/08/10 01:59:24;;;;;;;2.60;2.07;;;;;;;-143.84;78.52;45083.34;5089954;28;20538;-53
2023/08/10 02:01:52;;;;;;;2.53;2.20;;;;;;;-143.84;78.77;45085.25;5089507;28;20472;-53
2023/08/10 02:04:19;;;;;;;2.10;2.00;;;;;;;-143.84;78.79;45075.72;5089377;28;20488;-53
2023/08/10 02:06:46;;;;;;;3.93;2.40;;;;;;;-143.84;78.55;45070.00;5089758;28;20870;-53
2023/08/10 02:09:14;;;;;;;2.43;2.13;;;;;;;-143.84;78.82;45102.38;5089810;28;20436;-53
2023/08/10 02:11:41;;;;;;;5.97;2.57;;;;;;;-143.84;78.92;45071.91;5089475;28;20442;-54
2023/08/10 02:14:10;;;;;;;2.57;2.10;;;;;;;-143.84;79.00;45085.25;5089568;28;21010;-53
2023/08/10 02:16:37;;;;;;;3.23;2.00;;;;;;;-143.84;79.42;45092.88;5089754;28;20431;-53
2023/08/10 02:19:06;;;;;;;1.93;1.83;;;;;;;-143.84;79.74;45083.34;5089305;28;20440;-53
2023/08/10 02:21:33;;;;;;;3.83;2.57;;;;;;;-143.84;79.81;45068.13;5089501;28;20529;-53
2023/08/10 02:24:00;;;;;;;2.00;1.80;;;;;;;-143.84;79.99;45092.88;5089306;28;20469;-54
2023/08/10 02:26:27;;;;;;;2.23;2.03;;;;;;;-143.84;80.46;45060.50;5089356;28;20484;-53
2023/08/10 02:28:54;;;;;;;2.33;2.20;;;;;;;-143.84;80.55;45075.72;5089341;28;20436;-53
2023/08/10 02:31:24;;;;;;;4.60;2.30;;;;;;;-143.84;80.75;45083.34;5089411;28;20440;-53
2023/08/10 02:33:51;;;;;;;3.67;2.40;;;;;;;-143.84;81.10;45089.06;5089331;28;20444;-53
2023/08/10 02:36:20;;;;;;;3.20;2.70;;;;;;;-143.84;81.20;45075.72;5089271;28;20820;-53
2023/08/10 02:38:47;;;;;;;3.10;2.57;;;;;;;-143.84;82.11;45108.09;5089161;28;20444;-53
2023/08/10 02:41:14;;;;;;;4.60;2.60;;;;;;;-143.84;82.48;45087.16;5089017;28;20545;-53
2023/08/10 02:43:41;;;;;;;7.03;3.27;;;;;;;-143.84;82.75;45100.47;5088832;28;20960;-54
2023/08/10 02:46:09;;;;;;;2.67;2.50;;;;;;;-143.84;82.91;45081.44;5088780;28;20432;-53
2023/08/10 02:48:36;;;;;;;4.47;2.90;;;;;;;-143.84;83.26;45075.72;5088988;28;20442;-54
2023/08/10 02:51:03;;;;;;;14.93;3.20;;;;;;;-143.84;83.09;45102.38;5088903;28;20501;-54
2023/08/10 02:53:31;;;;;;;5.10;3.30;;;;;;;-143.84;82.44;45094.78;5088585;28;20435;-53
2023/08/10 02:55:59;;;;;;;3.10;2.90;;;;;;;-143.84;81.68;45073.81;5088523;28;21080;-53
2023/08/10 02:58:26;;;;;;;3.80;2.90;;;;;;;-143.84;81.11;45077.63;5088809;28;20432;-54
2023/08/10 03:00:53;;;;;;;3.40;2.77;;;;;;;-143.84;81.28;45073.81;5088817;28;20905;-53
2023/08/10 03:03:20;;;;;;;2.90;2.80;;;;;;;-143.84;81.58;45090.97;5088883;28;20989;-53
2023/08/10 03:05:47;;;;;;;3.53;3.23;;;;;;;-143.84;82.44;45089.06;5088890;28;20444;-54
2023/08/10 03:08:15;;;;;;;4.03;3.70;;;;;;;-143.84;83.01;45075.72;5088843;28;20841;-53
2023/08/10 03:10:43;;;;;;;3.10;2.90;;;;;;;-143.84;82.94;45092.88;5089084;28;20874;-53
2023/08/10 03:13:10;;;;;;;3.77;3.07;;;;;;;-143.84;82.88;45085.25;5088719;28;20436;-53
2023/08/10 03:15:38;;;;;;;3.13;2.93;;;;;;;-143.84;82.94;45083.34;5088702;28;20493;-53
2023/08/10 03:18:06;;;;;;;5.20;2.90;;;;;;;-143.84;83.33;45087.16;5088819;28;20436;-53
2023/08/10 03:20:33;;;;;;;4.53;3.00;;;;;;;-143.84;84.22;45089.06;5088927;28;20458;-53
2023/08/10 03:23:00;;;;;;;5.77;2.90;;;;;;;-143.84;84.81;45100.47;5088765;28;21006;-53
2023/08/10 03:25:27;;;;;;;3.63;3.30;;;;;;;-143.84;85.39;45110.00;5088636;28;20849;-53
2023/08/10 03:27:56;;;;;;;4.80;3.03;;;;;;;-143.84;85.53;45083.34;5088681;28;20448;-54
2023/08/10 03:30:23;;;;;;;3.90;3.60;;;;;;;-143.84;85.73;45087.16;5088459;28;20455;-54
2023/08/10 03:32:50;;;;;;;5.63;3.60;;;;;;;-143.84;86.01;45098.56;5088549;28;20448;-54
2023/08/10 03:35:17;;;;;;;3.17;2.80;;;;;;;-143.84;86.03;45110.00;5088375;28;20501;-53
2023/08/10 03:37:44;;;;;;;6.80;3.47;;;;;;;-143.84;86.00;45052.88;5088548;28;20424;-53
2023/08/10 03:40:12;;;;;;;4.63;3.70;;;;;;;-143.84;85.40;45081.44;5088897;28;20938;-54
2023/08/10 03:42:39;;;;;;;4.10;3.00;;;;;;;-143.84;85.15;45079.53;5088788;28;20480;-54
2023/08/10 03:45:09;;;;;;;3.20;2.93;;;;;;;-143.84;84.33;45068.13;5090139;28;20496;-53
2023/08/10 03:47:36;;;;;;;2.90;2.70;;;;;;;-143.84;81.00;45102.38;5092317;28;20443;-54
2023/08/10 03:50:03;;;;;;;3.50;3.20;;;;;;;-143.84;78.52;45071.91;5092282;28;20443;-54
2023/08/10 03:52:30;;;;;;;9.23;3.03;;;;;;;-143.84;74.66;45064.31;5092339;28;21028;-54
2023/08/10 03:54:57;;;;;;;4.33;2.80;;;;;;;-143.84;70.62;45062.41;5092244;28;21214;-54
2023/08/10 03:57:24;;;;;;;3.67;3.20;;;;;;;-143.84;68.09;45041.44;5092129;28;20444;-54
2023/08/10 03:59:51;;;;;;;6.80;2.57;;;;;;;-143.84;65.04;45024.31;5092035;28;20444;-54
2023/08/10 04:02:20;;;;;;;3.30;3.00;;;;;;;-143.84;60.65;45054.78;5087945;28;20927;-54
2023/08/10 04:04:48;;;;;;;2.63;2.27;;;;;;;-143.84;57.16;45009.09;5072047;28;20522;-54
2023/08/10 04:07:15;;;;;;;4.37;2.40;;;;;;;-143.84;55.86;45037.66;5071650;28;20451;-54
2023/08/10 04:09:46;;;;;;;3.40;2.90;;;;;;;-143.84;53.38;45049.06;5071825;28;20432;-54
2023/08/10 04:12:13;;;;;;;4.70;2.60;;;;;;;-143.84;55.26;45022.41;5071637;28;21010;-54
2023/08/10 04:14:40;;;;;;;3.03;2.83;;;;;;;-143.84;57.65;45049.06;5071595;28;20440;-54
2023/08/10 04:17:07;;;;;;;2.73;2.53;;;;;;;-143.84;59.51;45060.50;5071531;28;20462;-54
2023/08/10 04:19:36;;;;;;;4.43;3.47;;;;;;;-143.84;60.61;45058.59;5071798;28;20436;-54
2023/08/10 04:22:03;;;;;;;9.50;2.87;;;;;;;-143.84;62.97;45056.69;5071281;28;20488;-54
2023/08/10 04:24:31;;;;;;;2.80;2.50;;;;;;;-143.84;63.59;45052.88;5071373;28;20437;-54
2023/08/10 04:26:58;;;;;;;4.43;2.70;;;;;;;-143.84;63.75;45049.06;5071520;28;20441;-54
2023/08/10 04:29:26;;;;;;;2.87;2.57;;;;;;;-143.84;62.28;45052.88;5071168;28;20445;-54
2023/08/10 04:31:53;;;;;;;5.77;2.50;;;;;;;-143.84;62.30;45035.75;5070947;28;20502;-54
2023/08/10 04:34:21;;;;;;;3.67;2.83;;;;;;;-143.84;61.32;45077.63;5071287;28;20448;-54
2023/08/10 04:36:49;;;;;;;4.63;2.60;;;;;;;-143.84;61.91;45062.41;5071283;28;20445;-54
2023/08/10 04:39:17;;;;;;;3.07;2.60;;;;;;;-143.84;61.89;45052.88;5071258;28;20449;-54
2023/08/10 04:41:44;;;;;;;3.70;2.70;;;;;;;-143.84;62.94;45066.22;5070907;28;20476;-54
2023/08/10 04:44:11;;;;;;;3.30;2.80;;;;;;;-143.84;62.16;45037.66;5071177;28;20436;-54
2023/08/10 04:46:38;;;;;;;3.10;2.90;;;;;;;-143.84;60.91;45052.88;5071250;28;20449;-53
2023/08/10 04:49:06;;;;;;;3.43;2.70;;;;;;;-143.84;60.07;45035.75;5071078;28;20467;-54
2023/08/10 04:51:33;;;;;;;3.00;2.80;;;;;;;-143.84;58.95;45058.59;5070922;28;20475;-54
2023/08/10 04:54:02;;;;;;;2.97;2.70;;;;;;;-143.84;58.16;45037.66;5070899;28;20437;-54
2023/08/10 04:56:30;;;;;;;3.60;2.50;;;;;;;-143.84;56.98;45041.44;5069389;28;20574;-54
2023/08/10 04:58:57;;;;;;;5.83;2.93;;;;;;;-143.84;55.84;45007.19;5070732;28;20476;-54
2023/08/10 05:01:24;;;;;;;6.13;2.37;;;;;;;-143.84;55.54;45028.13;5070720;28;20871;-53
2023/08/10 05:03:51;;;;;;;8.40;3.17;;;;;;;-143.84;54.75;45010.97;5070340;28;20492;-54
2023/08/10 05:06:18;;;;;;;9.87;2.80;;;;;;;-143.84;54.17;45003.38;5070754;28;20814;-54
2023/08/10 05:08:45;;;;;;;8.20;2.93;;;;;;;-143.84;54.32;45028.13;5070675;28;20506;-54
2023/08/10 05:11:14;;;;;;;2.97;2.53;;;;;;;-143.84;55.18;45022.41;5070427;28;20429;-54
2023/08/10 05:13:41;;;;;;;5.63;3.10;;;;;;;-143.84;55.47;44991.94;5070283;28;20445;-54
2023/08/10 05:16:08;;;;;;;7.77;2.73;;;;;;;-143.84;55.52;45016.69;5070531;28;20437;-53
2023/08/10 05:18:35;;;;;;;3.07;2.77;;;;;;;-143.84;55.03;45016.69;5069803;28;20440;-54
2023/08/10 05:21:03;;;;;;;2.63;2.43;;;;;;;-143.84;55.65;45041.44;5069795;28;20876;-53
2023/08/10 05:23:30;;;;;;;2.83;2.40;;;;;;;-143.84;56.68;45033.84;5069642;28;20491;-54
2023/08/10 05:25:57;;;;;;;2.67;2.50;;;;;;;-143.84;58.03;45020.50;5070034;28;20450;-53
2023/08/10 05:28:25;;;;;;;6.60;3.67;;;;;;;-143.84;59.89;45026.22;5070214;28;20509;-54
2023/08/10 05:30:53;;;;;;;5.93;2.70;;;;;;;-143.84;60.58;45056.69;5070350;28;20880;-54
2023/08/10 05:33:20;;;;;;;3.57;3.27;;;;;;;-143.84;61.58;45024.31;5070440;28;20464;-54
2023/08/10 05:35:47;;;;;;;3.87;2.80;;;;;;;-143.84;61.75;45028.13;5070255;28;21083;-53
2023/08/10 05:38:14;;;;;;;4.07;3.20;;;;;;;-143.84;62.54;45022.41;5070032;28;20437;-54
2023/08/10 05:40:41;;;;;;;8.43;4.00;;;;;;;-143.84;63.00;45045.25;5070028;28;20433;-54
2023/08/10 05:43:09;;;;;;;5.90;2.60;;;;;;;-143.84;62.77;45012.88;5069823;28;20578;-54
2023/08/10 05:45:38;;;;;;;7.60;3.10;;;;;;;-143.84;62.12;44999.56;5070030;28;20453;-54
2023/08/10 05:48:10;;;;;;;4.70;3.17;;;;;;;-143.84;61.89;45020.50;5069968;28;20437;-54
2023/08/10 05:50:38;;;;;;;5.10;3.27;;;;;;;-143.84;62.51;45031.94;5070007;28;20448;-54
2023/08/10 05:53:06;;;;;;;5.93;3.33;;;;;;;-143.84;62.74;45030.03;5069583;28;20512;-54
2023/08/10 05:55:33;;;;;;;7.17;3.43;;;;;;;-143.84;63.00;45020.50;5069725;28;20449;-54
2023/08/10 05:58:00;;;;;;;3.40;3.10;;;;;;;-143.84;63.03;45050.97;5069600;28;21064;-54
2023/08/10 06:00:27;;;;;;;4.10;3.03;;;;;;;-143.84;63.29;45031.94;5069518;28;20440;-54
2023/08/10 06:02:56;;;;;;;4.47;3.20;;;;;;;-143.84;62.97;45028.13;5069104;28;20495;-54
2023/08/10 06:05:24;;;;;;;3.57;3.27;;;;;;;-143.84;61.72;45031.94;5069573;28;20449;-53
2023/08/10 06:07:51;;;;;;;4.17;2.80;;;;;;;-143.84;61.80;45033.84;5069129;28;20449;-54
2023/08/10 06:10:19;;;;;;;6.63;3.40;;;;;;;-143.84;62.27;45045.25;5069180;28;20494;-54
2023/08/10 06:12:47;;;;;;;4.57;3.07;;;;;;;-143.84;62.53;45003.38;5069346;28;20456;-54
2023/08/10 06:15:15;;;;;;;6.23;3.23;;;;;;;-143.84;62.25;45003.38;5069263;28;20989;-54
2023/08/10 06:17:43;;;;;;;5.53;3.30;;;;;;;-143.84;61.41;45037.66;5069292;28;20923;-54
2023/08/10 06:20:16;;;;;;;8.23;3.83;;;;;;;-143.84;60.01;45003.38;5069320;28;20506;-54
2023/08/10 06:22:44;;;;;;;3.60;3.00;;;;;;;-143.84;59.90;45009.09;5069381;28;20635;-54
2023/08/10 06:25:12;;;;;;;5.10;3.50;;;;;;;-143.84;60.30;45010.97;5069408;28;20443;-54
2023/08/10 06:27:39;;;;;;;9.10;3.70;;;;;;;-143.84;60.24;45024.31;5069291;28;20472;-54
2023/08/10 06:30:09;;;;;;;3.97;3.60;;;;;;;-143.84;60.72;45003.38;5069218;28;20448;-54
2023/08/10 06:32:36;;;;;;;5.67;3.13;;;;;;;-143.84;61.36;45014.78;5069100;28;20441;-54
2023/08/10 06:35:04;;;;;;;5.53;3.47;;;;;;;-143.84;61.99;45026.22;5069260;28;20444;-54
2023/08/10 06:37:33;;;;;;;4.07;3.33;;;;;;;-143.84;61.64;45028.13;5068816;28;20448;-54
2023/08/10 06:40:00;;;;;;;6.00;3.30;;;;;;;-143.84;62.33;45033.84;5069037;28;20468;-54
2023/08/10 06:42:28;;;;;;;15.10;3.63;;;;;;;-143.84;61.78;45018.59;5068927;28;20488;-54
2023/08/10 06:44:55;;;;;;;3.50;3.20;;;;;;;-143.84;61.21;45014.78;5068928;28;20445;-54
2023/08/10 06:47:22;;;;;;;4.83;3.37;;;;;;;-143.84;57.76;44999.56;5068889;28;20497;-54
2023/08/10 06:49:55;;;;;;;6.80;3.53;;;;;;;-143.84;58.17;45022.41;5068945;28;20452;-54
2023/08/10 06:52:24;;;;;;;5.30;3.33;;;;;;;-143.84;57.42;45018.59;5068715;28;20444;-54
2023/08/10 06:54:53;;;;;;;3.43;3.13;;;;;;;-143.84;56.96;45001.47;5068779;28;20449;-54
2023/08/10 06:57:22;;;;;;;4.70;3.10;;;;;;;-143.84;55.46;44991.94;5068637;28;20437;-54
2023/08/10 06:59:50;;;;;;;5.90;2.93;;;;;;;-143.84;56.69;44999.56;5068800;28;20456;-54
2023/08/10 07:02:17;;;;;;;3.53;2.73;;;;;;;-143.84;56.87;45005.28;5068516;28;20461;-54
2023/08/10 07:04:47;;;;;;;5.13;2.60;;;;;;;-143.84;55.08;45014.78;5068582;28;20498;-54
2023/08/10 07:07:18;;;;;;;5.47;3.30;;;;;;;-143.84;54.12;45020.50;5068439;28;20515;-54
2023/08/10 07:09:46;;;;;;;7.60;3.80;;;;;;;-143.84;53.33;44999.56;5067257;28;20476;-54
2023/08/10 07:12:15;;;;;;;9.33;3.53;;;;;;;-143.84;53.14;44997.66;5068547;28;20444;-54
2023/08/10 07:14:43;;;;;;;8.73;3.60;;;;;;;-143.84;53.18;44974.81;5068850;28;20527;-54
2023/08/10 07:17:12;;;;;;;5.77;3.23;;;;;;;-143.84;51.21;44986.22;5068804;28;20511;-54
2023/08/10 07:19:41;;;;;;;4.80;3.47;;;;;;;-143.84;52.61;44971.00;5068964;28;20480;-54
2023/08/10 07:22:09;;;;;;;3.90;3.00;;;;;;;-143.84;52.12;44967.19;5071495;28;20985;-54
2023/08/10 07:24:36;;;;;;;10.40;2.90;;;;;;;-143.84;50.79;44976.72;5069314;28;20523;-54
2023/08/10 07:27:08;;;;;;;3.50;3.20;;;;;;;-143.84;50.86;44961.47;5071777;28;20547;-54
2023/08/10 07:29:37;;;;;;;5.60;3.23;;;;;;;-143.84;49.21;44953.88;5070723;28;21297;-54
2023/08/10 07:32:10;;;;;;;4.80;3.50;;;;;;;-143.84;49.37;44991.94;5072114;28;20440;-54
2023/08/10 07:34:38;;;;;;;12.33;3.40;;;;;;;-143.84;49.48;44961.47;5072016;28;20813;-54
2023/08/10 07:37:05;;;;;;;10.20;3.30;;;;;;;-143.84;50.13;44971.00;5072178;28;20449;-54
2023/08/10 07:39:34;;;;;;;8.73;3.60;;;;;;;-143.84;49.08;44974.81;5070767;28;20954;-54
2023/08/10 07:42:01;;;;;;;5.07;3.47;;;;;;;-143.84;49.15;44967.19;5072272;28;20536;-54
2023/08/10 07:44:31;;;;;;;3.83;2.60;;;;;;;-143.84;48.58;44955.75;5071415;28;20849;-54
2023/08/10 07:47:00;;;;;;;7.43;3.73;;;;;;;-143.84;48.25;44965.28;5070621;28;20449;-54
2023/08/10 07:49:31;;;;;;;7.50;3.10;;;;;;;-143.84;49.25;44969.09;5071240;28;21254;-54
2023/08/10 07:51:59;;;;;;;3.57;2.77;;;;;;;-143.84;49.48;44978.63;5072056;28;20448;-54
2023/08/10 07:54:28;;;;;;;10.60;3.57;;;;;;;-143.84;50.22;44988.13;5072335;28;20462;-54
2023/08/10 07:56:56;;;;;;;10.47;3.40;;;;;;;-143.84;49.99;44978.63;5071919;28;20550;-54
2023/08/10 07:59:24;;;;;;;4.40;2.57;;;;;;;-143.84;51.01;44959.56;5070624;28;20535;-54
2023/08/10 08:01:52;;;;;;;10.33;2.77;;;;;;;-143.84;51.54;44974.81;5071989;28;20849;-54
2023/08/10 08:04:21;;;;;;;4.63;2.30;;;;;;;-143.84;52.45;44997.66;5071117;28;20480;-54
2023/08/10 08:06:48;;;;;;;3.30;2.50;;;;;;;-143.84;52.82;44971.00;5071511;28;20445;-54
2023/08/10 08:09:17;;;;;;;9.67;3.53;;;;;;;-143.84;53.94;44969.09;5070338;28;20437;-54
2023/08/10 08:11:46;;;;;;;6.97;2.67;;;;;;;-143.84;53.58;44955.75;5070346;28;20443;-54
2023/08/10 08:14:13;;;;;;;6.50;2.40;;;;;;;-143.84;52.04;44993.84;5071617;28;20523;-54
2023/08/10 08:16:41;;;;;;;4.40;2.07;;;;;;;-143.84;51.22;44976.72;5070152;28;20791;-54
2023/08/10 08:19:11;;;;;;;3.50;1.77;;;;;;;-143.84;51.73;44976.72;5071521;28;20574;-54
2023/08/10 08:21:40;;;;;;;4.20;2.10;;;;;;;-143.84;52.81;44984.31;5069629;28;21055;-54
2023/08/10 08:24:07;;;;;;;6.10;2.50;;;;;;;-143.84;53.67;44988.13;5071244;28;20483;-54
2023/08/10 08:26:38;;;;;;;7.33;2.00;;;;;;;-143.84;53.10;45005.28;5069911;28;20452;-54
2023/08/10 08:29:05;;;;;;;9.40;2.23;;;;;;;-143.84;53.77;44988.13;5071603;28;20550;-54
2023/08/10 08:31:35;;;;;;;4.10;2.07;;;;;;;-143.84;54.52;44988.13;5070637;28;20448;-54
2023/08/10 08:34:07;;;;;;;7.43;2.47;;;;;;;-143.84;53.93;45014.78;5071157;28;20445;-54
2023/08/10 08:36:34;;;;;;;13.20;3.03;;;;;;;-143.84;53.93;44984.31;5071230;28;20445;-54
2023/08/10 08:39:04;;;;;;;3.40;1.80;;;;;;;-143.84;53.52;45009.09;5071277;28;20432;-54
2023/08/10 08:41:44;;;;;;;3.37;2.20;;;;;;;-143.84;53.96;45012.88;5069866;28;20447;-54
2023/08/10 08:44:11;;;;;;;7.03;2.07;;;;;;;-143.84;52.44;44999.56;5071164;28;20568;-54
2023/08/10 08:46:41;;;;;;;6.30;2.00;;;;;;;-143.84;52.53;44990.03;5070958;28;20498;-54
2023/08/10 08:49:10;;;;;;;3.03;2.10;;;;;;;-143.84;51.80;45018.59;5071066;28;20516;-54
2023/08/10 08:51:39;;;;;;;3.20;1.90;;;;;;;-143.84;53.72;44986.22;5070992;28;20441;-54
2023/08/10 08:54:10;;;;;;;6.73;2.30;;;;;;;-143.84;53.32;45009.09;5069553;28;20448;-54
2023/08/10 08:56:38;;;;;;;3.50;2.47;;;;;;;-143.84;53.99;44988.13;5069722;28;20449;-54
2023/08/10 08:59:05;;;;;;;10.00;2.60;;;;;;;-143.84;54.49;44993.84;5070954;28;20448;-54
2023/08/10 09:01:33;;;;;;;8.27;2.80;;;;;;;-143.84;53.86;44999.56;5070743;28;20447;-54
2023/08/10 09:04:04;;;;;;;9.27;2.90;;;;;;;-143.84;52.84;44999.56;5070250;28;20500;-54
2023/08/10 09:06:33;;;;;;;2.80;2.23;;;;;;;-143.84;52.66;44991.94;5070626;28;20946;-54
2023/08/10 09:09:02;;;;;;;5.37;3.10;;;;;;;-143.84;52.19;44988.13;5070645;28;20437;-54
2023/08/10 09:11:33;;;;;;;3.80;2.80;;;;;;;-143.84;52.34;44967.19;5070599;28;20441;-54
2023/08/10 09:14:09;;;;;;;21.07;4.50;;;;;;;-143.84;51.61;44995.75;5069596;28;20485;-54
2023/08/10 09:16:39;;;;;;;6.50;3.97;;;;;;;-143.84;51.30;44986.22;5070533;28;20973;-54
2023/08/10 09:19:11;;;;;;;6.97;3.63;;;;;;;-143.84;51.56;45026.22;5070043;28;20545;-55
2023/08/10 09:21:39;;;;;;;4.20;3.80;;;;;;;-143.84;52.38;44990.03;5070502;28;20844;-54
2023/08/10 09:24:10;;;;;;;7.30;3.93;;;;;;;-143.84;51.93;45014.78;5070147;28;20482;-54
2023/08/10 09:26:40;;;;;;;12.03;4.50;;;;;;;-143.84;51.90;44972.91;5069124;28;20445;-54
2023/08/10 09:29:08;;;;;;;4.60;3.67;;;;;;;-143.84;52.26;44991.94;5070212;28;21003;-54
2023/08/10 09:31:41;;;;;;;7.57;4.03;;;;;;;-143.84;48.65;44984.31;5070146;28;20456;-54
2023/08/10 09:34:13;;;;;;;4.00;3.40;;;;;;;-143.84;48.88;44967.19;5069830;28;20441;-54
2023/08/10 09:36:56;;;;;;;7.47;4.23;;;;;;;-143.84;48.63;44959.56;5070078;28;20445;-55
2023/08/10 09:39:23;;;;;;;8.20;4.17;;;;;;;-143.84;49.46;44999.56;5068384;28;20444;-54
2023/08/10 09:41:56;;;;;;;8.80;3.47;;;;;;;-143.84;48.97;44971.00;5066336;28;20989;-55
2023/08/10 09:44:24;;;;;;;4.70;4.20;;;;;;;-143.84;48.29;44986.22;5069904;28;20994;-54
2023/08/10 09:46:58;;;;;;;5.90;3.97;;;;;;;-143.84;49.42;44988.13;5069791;28;20445;-54
2023/08/10 09:49:25;;;;;;;9.67;3.80;;;;;;;-143.84;49.70;44997.66;5069627;28;21009;-54
2023/08/10 09:51:52;;;;;;;10.33;4.50;;;;;;;-143.84;50.22;44997.66;5069752;28;21215;-54
2023/08/10 09:54:21;;;;;;;9.80;5.00;;;;;;;-143.84;50.22;44993.84;5069632;28;20949;-54
2023/08/10 09:56:53;;;;;;;4.83;4.20;;;;;;;-143.84;50.45;45003.38;5069173;28;20441;-54
2023/08/10 09:59:22;;;;;;;8.70;4.23;;;;;;;-143.84;50.53;44984.31;5069507;28;20421;-55
2023/08/10 10:01:52;;;;;;;4.80;4.30;;;;;;;-143.84;49.97;45003.38;5084775;28;20478;-54
2023/08/10 10:04:20;;;;;;;7.70;5.20;;;;;;;-143.84;49.37;44980.53;5089541;28;20492;-54
2023/08/10 10:06:48;;;;;;;6.03;4.23;;;;;;;-143.84;49.67;44972.91;5089600;28;20436;-54
2023/08/10 10:09:16;;;;;;;7.50;4.63;;;;;;;-143.84;48.25;45005.28;5089161;28;20524;-54
2023/08/10 10:11:45;;;;;;;8.30;4.70;;;;;;;-143.84;48.41;44991.94;5089118;28;20447;-54
2023/08/10 10:14:12;;;;;;;6.60;4.90;;;;;;;-143.84;48.26;44982.41;5087970;28;20443;-54
2023/08/10 10:16:41;;;;;;;10.67;5.27;;;;;;;-143.84;47.96;44984.31;5089412;28;21172;-54
2023/08/10 10:19:08;;;;;;;12.03;5.07;;;;;;;-143.84;49.09;45003.38;5089560;28;20428;-54
2023/08/10 10:21:36;;;;;;;6.40;5.00;;;;;;;-143.84;49.69;44993.84;5089391;28;20436;-54
2023/08/10 10:24:03;;;;;;;15.17;5.00;;;;;;;-143.84;50.53;44978.63;5089398;28;20984;-54
2023/08/10 10:26:30;;;;;;;6.70;4.10;;;;;;;-143.84;51.04;44971.00;5089292;28;20432;-54
2023/08/10 10:29:15;;;;;;;4.93;4.10;;;;;;;-143.84;51.12;45005.28;5089135;28;20547;-54
2023/08/10 10:31:44;;;;;;;7.57;4.27;;;;;;;-143.84;50.63;44999.56;5089191;28;20432;-54
2023/08/10 10:34:13;;;;;;;4.27;3.97;;;;;;;-143.84;50.63;45005.28;5089340;28;20474;-54
2023/08/10 10:36:40;;;;;;;4.13;3.37;;;;;;;-143.84;49.92;44986.22;5089233;28;20921;-54
2023/08/10 10:39:08;;;;;;;11.60;4.30;;;;;;;-143.84;51.06;44967.19;5089338;28;20443;-54
2023/08/10 10:41:36;;;;;;;5.50;3.43;;;;;;;-143.84;50.68;44969.09;5089115;28;20475;-54
2023/08/10 10:44:04;;;;;;;7.00;3.70;;;;;;;-143.84;50.05;44999.56;5088864;28;20471;-54
2023/08/10 10:46:40;;;;;;;7.03;4.10;;;;;;;-143.84;47.49;44974.81;5088926;28;20439;-54
2023/08/10 10:49:13;;;;;;;4.53;3.77;;;;;;;-143.84;46.69;44974.81;5088955;28;20451;-54
2023/08/10 10:51:53;;;;;;;5.80;3.83;;;;;;;-143.84;45.87;44953.88;5088995;28;20450;-54
2023/08/10 10:54:20;;;;;;;9.50;3.77;;;;;;;-143.84;45.87;44974.81;5089179;28;20546;-53
2023/08/10 10:56:48;;;;;;;4.00;3.67;;;;;;;-143.84;45.32;44980.53;5089242;28;21292;-54
2023/08/10 10:59:16;;;;;;;6.80;3.57;;;;;;;-143.84;45.01;44991.94;5088390;28;20521;-53
2023/08/10 11:01:48;;;;;;;5.33;4.10;;;;;;;-143.84;46.20;44984.31;5088909;28;20934;-55
2023/08/10 11:04:16;;;;;;;4.73;4.13;;;;;;;-143.84;45.73;44967.19;5088937;28;20610;-54
2023/08/10 11:06:43;;;;;;;6.47;4.00;;;;;;;-143.84;44.38;44999.56;5088940;28;20946;-54
2023/08/10 11:09:13;;;;;;;5.10;4.57;;;;;;;-143.84;44.05;44955.75;5088776;28;20440;-54
2023/08/10 11:11:40;;;;;;;5.77;3.73;;;;;;;-143.84;44.75;44995.75;5088806;28;20444;-54
2023/08/10 11:14:07;;;;;;;7.53;4.00;;;;;;;-143.84;44.04;44991.94;5088411;28;20448;-54
2023/08/10 11:16:42;;;;;;;4.00;3.60;;;;;;;-143.84;42.59;44961.47;5088708;28;20451;-54
2023/08/10 11:19:13;;;;;;;4.17;3.80;;;;;;;-143.84;42.16;44927.19;5088856;28;20467;-53
2023/08/10 11:21:44;;;;;;;5.37;3.70;;;;;;;-143.84;42.54;44948.16;5088953;28;20463;-53